Time;durP1;ratioP1;P1;durP2;ratioP2;P2;SDS_P1;SDS_P2;PMS_P1;PMS_P2;Temp;Humidity;BMP_temperature;BMP_pressure;BME280_temperature;BME280_humidity;BME280_pressure;Samples;Min_cycle;Max_cycle;Signal;HPM_P1;HPM_P2
2022/09/08 00:02:20;;;;;;;1999.90;999.90;;;18.90;99.90;;;;;;5072838;28;20260;-72
2022/09/08 00:04:47;;;;;;;1999.90;999.90;;;18.90;99.90;;;;;;5073525;28;20206;-72
2022/09/08 00:07:16;;;;;;;1999.90;999.90;;;18.90;99.90;;;;;;5073376;28;20199;-72
2022/09/08 00:09:43;;;;;;;1999.90;999.90;;;19.00;99.90;;;;;;5073363;28;20201;-73
2022/09/08 00:12:11;;;;;;;1999.90;999.90;;;19.00;99.90;;;;;;5072997;28;20199;-73
2022/09/08 00:14:38;;;;;;;1999.90;999.90;;;19.10;99.90;;;;;;5072919;28;20270;-72
2022/09/08 00:17:05;;;;;;;1999.90;999.90;;;19.10;99.90;;;;;;5072958;28;20749;-72
2022/09/08 00:19:32;;;;;;;1999.90;999.90;;;19.10;99.90;;;;;;5072835;28;20198;-72
2022/09/08 00:21:59;;;;;;;1999.90;999.90;;;19.10;99.90;;;;;;5072772;28;20215;-73
2022/09/08 00:24:28;;;;;;;1999.90;999.90;;;19.10;99.90;;;;;;5072649;28;20205;-73
2022/09/08 00:26:55;;;;;;;1999.90;999.90;;;19.00;99.90;;;;;;5073013;28;20284;-73
2022/09/08 00:29:22;;;;;;;1999.90;999.90;;;19.00;99.90;;;;;;5072704;28;20671;-73
2022/09/08 00:31:49;;;;;;;1999.90;999.90;;;18.90;99.90;;;;;;5072892;28;20199;-72
2022/09/08 00:34:16;;;;;;;1999.90;999.90;;;18.80;99.90;;;;;;5073008;28;20195;-73
2022/09/08 00:36:43;;;;;;;1999.90;999.90;;;18.80;99.90;;;;;;5072869;28;20207;-73
2022/09/08 00:39:10;;;;;;;1999.90;999.90;;;18.60;99.90;;;;;;5072539;28;20542;-73
2022/09/08 00:41:39;;;;;;;1999.90;999.90;;;18.50;99.90;;;;;;5072765;28;20217;-73
2022/09/08 00:44:35;;;;;;;1999.90;999.90;;;18.50;99.90;;;;;;5072799;28;20201;-73
2022/09/08 00:47:04;;;;;;;1999.90;999.90;;;18.40;99.90;;;;;;5072210;28;20694;-73
2022/09/08 00:49:32;;;;;;;1999.90;999.90;;;18.40;99.90;;;;;;5072489;28;20191;-72
2022/09/08 00:52:00;;;;;;;1999.90;999.90;;;18.30;99.90;;;;;;5072704;28;20203;-73
2022/09/08 00:54:27;;;;;;;1999.90;999.90;;;18.20;99.90;;;;;;5072563;28;20202;-73
2022/09/08 00:56:58;;;;;;;1999.90;999.90;;;18.10;99.90;;;;;;5072319;28;20202;-73
2022/09/08 00:59:26;;;;;;;1999.90;999.90;;;18.10;99.90;;;;;;5072488;28;20189;-72
2022/09/08 01:01:55;;;;;;;1999.90;999.90;;;18.00;99.90;;;;;;5071920;28;20229;-72
2022/09/08 01:04:22;;;;;;;1999.90;999.90;;;18.00;99.90;;;;;;5072458;28;20191;-72
2022/09/08 01:12:44;;;;;;;1999.90;999.90;;;17.90;99.90;;;;;;5072142;28;20193;-72
2022/09/08 01:15:14;;;;;;;1999.90;999.90;;;17.80;99.90;;;;;;5072499;28;20235;-72
2022/09/08 01:17:42;;;;;;;1999.90;999.90;;;17.80;99.90;;;;;;5072422;28;20186;-73
2022/09/08 01:20:10;;;;;;;1999.90;999.90;;;17.80;99.90;;;;;;5072147;28;20195;-72
2022/09/08 01:23:01;;;;;;;1999.90;999.90;;;17.80;99.90;;;;;;5072357;28;20215;-72
2022/09/08 01:25:53;;;;;;;1999.90;999.90;;;17.80;99.90;;;;;;5071998;28;20179;-73
2022/09/08 01:28:29;;;;;;;1999.90;999.90;;;17.80;99.90;;;;;;5072058;28;20546;-72
2022/09/08 01:30:57;;;;;;;1999.90;999.90;;;17.80;99.90;;;;;;5071942;28;20189;-72
2022/09/08 01:33:24;;;;;;;1999.90;999.90;;;17.90;99.90;;;;;;5071980;28;20201;-72
2022/09/08 01:35:51;;;;;;;1999.90;999.90;;;17.80;99.90;;;;;;5071935;28;20195;-73
2022/09/08 01:38:18;;;;;;;1999.90;999.90;;;17.90;99.90;;;;;;5071908;28;20203;-73
2022/09/08 01:40:45;;;;;;;1999.90;999.90;;;17.80;99.90;;;;;;5072213;28;20210;-73
2022/09/08 01:43:13;;;;;;;1999.90;999.90;;;17.80;99.90;;;;;;5071833;28;20210;-73
2022/09/08 01:45:41;;;;;;;1999.90;999.90;;;17.80;99.90;;;;;;5072168;28;20197;-73
2022/09/08 01:48:09;;;;;;;1999.90;999.90;;;17.80;99.90;;;;;;5072105;28;20209;-72
2022/09/08 01:50:37;;;;;;;1999.90;999.90;;;17.80;99.90;;;;;;5072026;28;20191;-73
2022/09/08 01:53:04;;;;;;;1999.90;999.90;;;17.80;99.90;;;;;;5072140;28;20198;-74
2022/09/08 01:55:31;;;;;;;1999.90;999.90;;;17.80;99.90;;;;;;5072017;28;20210;-74
2022/09/08 01:57:58;;;;;;;1999.90;999.90;;;17.70;99.90;;;;;;5071808;28;20596;-73
2022/09/08 02:00:25;;;;;;;1999.90;999.90;;;17.70;99.90;;;;;;5073534;28;20198;-73
2022/09/08 02:02:55;;;;;;;1999.90;999.90;;;17.60;99.90;;;;;;5075154;28;20234;-72
2022/09/08 02:05:22;;;;;;;1999.90;999.90;;;17.60;99.90;;;;;;5075393;28;20199;-72
2022/09/08 02:07:49;;;;;;;1999.90;999.90;;;17.60;99.90;;;;;;5075372;28;20198;-73
2022/09/08 02:10:16;;;;;;;1999.90;999.90;;;17.60;99.90;;;;;;5075714;28;20197;-73
2022/09/08 02:12:44;;;;;;;1999.90;999.90;;;17.60;99.90;;;;;;5075643;28;20195;-72
2022/09/08 02:15:11;;;;;;;1999.90;999.90;;;17.60;99.90;;;;;;5075564;28;20200;-72
2022/09/08 02:17:38;;;;;;;1999.90;999.90;;;17.50;99.90;;;;;;5075608;28;20199;-73
2022/09/08 02:20:07;;;;;;;1999.90;999.90;;;17.50;99.90;;;;;;5075622;28;20204;-73
2022/09/08 02:22:34;;;;;;;1999.90;999.90;;;17.50;99.90;;;;;;5074992;28;20677;-73
2022/09/08 02:25:01;;;;;;;1999.90;999.90;;;17.50;99.90;;;;;;5074846;28;20210;-74
2022/09/08 02:27:28;;;;;;;1999.90;999.90;;;17.50;99.90;;;;;;5075048;28;20198;-73
2022/09/08 02:29:56;;;;;;;1999.90;999.90;;;17.40;99.90;;;;;;5075387;28;20190;-73
2022/09/08 02:32:23;;;;;;;1999.90;999.90;;;17.40;99.90;;;;;;5075226;28;20202;-73
2022/09/08 02:34:50;;;;;;;1999.90;999.90;;;17.30;99.90;;;;;;5074952;28;20189;-73
2022/09/08 02:37:18;;;;;;;1999.90;999.90;;;17.40;99.90;;;;;;5075242;28;20207;-74
2022/09/08 02:39:45;;;;;;;1999.90;999.90;;;17.40;99.90;;;;;;5075308;28;20205;-74
2022/09/08 02:42:12;;;;;;;1999.90;999.90;;;17.40;99.90;;;;;;5074990;28;20209;-70
2022/09/08 02:44:39;;;;;;;1999.90;999.90;;;17.40;99.90;;;;;;5075022;28;20254;-69
2022/09/08 02:47:07;;;;;;;1999.90;999.90;;;17.40;99.90;;;;;;5074967;28;20247;-68
2022/09/08 02:49:34;;;;;;;1999.90;999.90;;;17.40;99.90;;;;;;5074983;28;20206;-68
2022/09/08 02:52:02;;;;;;;1999.90;999.90;;;17.40;99.90;;;;;;5074641;28;20670;-69
2022/09/08 02:54:30;;;;;;;1999.90;999.90;;;17.30;99.90;;;;;;5074459;28;20201;-69
2022/09/08 02:56:57;;;;;;;1999.90;999.90;;;17.30;99.90;;;;;;5074566;28;20705;-70
2022/09/08 02:59:24;;;;;;;1999.90;999.90;;;17.20;99.90;;;;;;5074828;28;20202;-69
2022/09/08 03:01:51;;;;;;;1999.90;999.90;;;17.30;99.90;;;;;;5074124;28;20627;-68
2022/09/08 03:04:18;;;;;;;1999.90;999.90;;;17.20;99.90;;;;;;5074618;28;20197;-68
2022/09/08 03:06:45;;;;;;;1999.90;999.90;;;17.20;99.90;;;;;;5074701;28;20558;-69
2022/09/08 03:09:12;;;;;;;1999.90;999.90;;;17.20;99.90;;;;;;5074654;28;20194;-68
2022/09/08 03:11:41;;;;;;;1999.90;999.90;;;17.20;99.90;;;;;;5074080;28;20201;-68
2022/09/08 03:14:08;;;;;;;1999.90;999.90;;;17.20;99.90;;;;;;5074584;28;20193;-68
2022/09/08 03:16:35;;;;;;;1999.90;999.90;;;17.20;99.90;;;;;;5074469;28;20202;-68
2022/09/08 03:19:03;;;;;;;1999.90;999.90;;;17.20;99.90;;;;;;5074152;28;20247;-68
2022/09/08 03:21:30;;;;;;;1999.90;999.90;;;17.20;99.90;;;;;;5074345;28;20200;-68
2022/09/08 03:23:57;;;;;;;1999.90;999.90;;;17.20;99.90;;;;;;5074166;28;20218;-69
2022/09/08 03:26:24;;;;;;;1999.90;999.90;;;17.20;99.90;;;;;;5073919;28;20224;-69
2022/09/08 03:28:53;;;;;;;1999.90;999.90;;;17.20;99.90;;;;;;5074231;28;20192;-68
2022/09/08 03:31:21;;;;;;;1999.90;999.90;;;17.20;99.90;;;;;;5074008;28;20208;-69
2022/09/08 03:33:48;;;;;;;1999.90;999.90;;;17.20;99.90;;;;;;5073764;28;20202;-68
2022/09/08 03:36:17;;;;;;;1999.90;999.90;;;17.20;99.90;;;;;;5074080;28;20562;-69
2022/09/08 03:38:45;;;;;;;1999.90;999.90;;;17.20;99.90;;;;;;5073992;28;20205;-69
2022/09/08 03:41:16;;;;;;;1999.90;999.90;;;17.30;99.90;;;;;;5073620;28;20210;-70
2022/09/08 03:43:45;;;;;;;1999.90;999.90;;;17.20;99.90;;;;;;5073624;28;20203;-70
2022/09/08 03:46:14;;;;;;;1999.90;999.90;;;17.20;99.90;;;;;;5073553;28;20206;-71
2022/09/08 03:48:42;;;;;;;1999.90;999.90;;;17.10;99.90;;;;;;5073852;28;20200;-69
2022/09/08 03:51:10;;;;;;;1999.90;999.90;;;17.10;99.90;;;;;;5073465;28;20692;-69
2022/09/08 03:53:38;;;;;;;1999.90;999.90;;;17.10;99.90;;;;;;5073411;28;20204;-69
2022/09/08 03:56:08;;;;;;;1999.90;999.90;;;17.10;99.90;;;;;;5073631;28;20231;-69
2022/09/08 03:58:36;;;;;;;1999.90;999.90;;;17.20;99.90;;;;;;5073318;28;20544;-67
2022/09/08 04:01:07;;;;;;;1999.90;999.90;;;17.10;99.90;;;;;;5073066;28;20222;-67
2022/09/08 04:03:36;;;;;;;1999.90;999.90;;;17.20;99.90;;;;;;5072989;28;20242;-67
2022/09/08 04:06:03;;;;;;;1999.90;999.90;;;17.10;99.90;;;;;;5073440;28;20223;-68
2022/09/08 04:08:30;;;;;;;1999.90;999.90;;;17.20;99.90;;;;;;5073116;28;20692;-67
2022/09/08 04:10:58;;;;;;;1999.90;999.90;;;17.20;99.90;;;;;;5073379;28;20197;-69
2022/09/08 04:13:26;;;;;;;1999.90;999.90;;;17.10;99.90;;;;;;5073285;28;20204;-69
2022/09/08 04:15:54;;;;;;;1999.90;999.90;;;17.10;99.90;;;;;;5073191;28;20202;-70
2022/09/08 04:18:21;;;;;;;1999.90;999.90;;;17.10;99.90;;;;;;5073248;28;20195;-70
2022/09/08 04:20:57;;;;;;;1999.90;999.90;;;17.00;99.90;;;;;;5072922;28;20668;-70
2022/09/08 04:23:24;;;;;;;1999.90;999.90;;;17.10;99.90;;;;;;5072060;28;20219;-70
2022/09/08 04:25:58;;;;;;;1999.90;999.90;;;17.00;99.90;;;;;;5073006;28;20198;-70
2022/09/08 04:28:27;;;;;;;1999.90;999.90;;;17.00;99.90;;;;;;5073067;28;20241;-70
2022/09/08 04:30:54;;;;;;;1999.90;999.90;;;16.90;99.90;;;;;;5072600;28;20552;-70
2022/09/08 04:33:21;;;;;;;1999.90;999.90;;;16.90;99.90;;;;;;5072657;28;20193;-70
2022/09/08 04:35:48;;;;;;;1999.90;999.90;;;16.90;99.90;;;;;;5072656;28;20680;-69
2022/09/08 04:38:17;;;;;;;1999.90;999.90;;;17.00;99.90;;;;;;5073120;28;20203;-69
2022/09/08 04:40:44;;;;;;;1999.90;999.90;;;16.90;99.90;;;;;;5072887;28;20197;-70
2022/09/08 04:43:11;;;;;;;1999.90;999.90;;;17.00;99.90;;;;;;5072496;28;20202;-71
2022/09/08 04:45:38;;;;;;;1999.90;999.90;;;16.80;99.90;;;;;;5072806;28;20209;-70
2022/09/08 04:48:05;;;;;;;1999.90;999.90;;;16.70;99.90;;;;;;5072885;28;20293;-72
2022/09/08 04:50:32;;;;;;;1999.90;999.90;;;16.70;99.90;;;;;;5072544;28;20204;-70
2022/09/08 04:52:59;;;;;;;1999.90;999.90;;;16.80;99.90;;;;;;5072948;28;20203;-71
2022/09/08 04:55:28;;;;;;;1999.90;999.90;;;16.80;99.90;;;;;;5071888;28;20191;-72
2022/09/08 04:57:55;;;;;;;1999.90;999.90;;;16.70;99.90;;;;;;5071680;28;20210;-72
2022/09/08 05:00:22;;;;;;;1999.90;999.90;;;16.60;99.90;;;;;;5072228;28;20193;-72
2022/09/08 05:02:49;;;;;;;1999.90;999.90;;;16.70;99.90;;;;;;5071642;28;20223;-72
2022/09/08 05:05:16;;;;;;;1999.90;999.90;;;16.60;99.90;;;;;;5072106;28;20217;-73
2022/09/08 05:07:43;;;;;;;1999.90;999.90;;;16.70;99.90;;;;;;5072571;28;20207;-71
2022/09/08 05:10:11;;;;;;;1999.90;999.90;;;16.60;99.90;;;;;;5072226;28;20203;-70
2022/09/08 05:12:39;;;;;;;1999.90;999.90;;;16.60;99.90;;;;;;5072463;28;20209;-69
2022/09/08 05:15:08;;;;;;;1999.90;999.90;;;16.60;99.90;;;;;;5072497;28;20199;-71
2022/09/08 05:17:35;;;;;;;1999.90;999.90;;;16.60;99.90;;;;;;5071390;28;20205;-70
2022/09/08 05:20:02;;;;;;;1999.90;999.90;;;16.70;99.90;;;;;;5070350;28;20189;-71
2022/09/08 05:22:30;;;;;;;1999.90;999.90;;;16.60;99.90;;;;;;5070696;28;20189;-71
2022/09/08 05:24:57;;;;;;;1999.90;999.90;;;16.60;99.90;;;;;;5072210;28;20214;-70
2022/09/08 05:27:24;;;;;;;1999.90;999.90;;;16.60;99.90;;;;;;5071291;28;20201;-69
2022/09/08 05:29:52;;;;;;;1999.90;999.90;;;16.50;99.90;;;;;;5072006;28;20195;-69
2022/09/08 05:32:19;;;;;;;1999.90;999.90;;;16.60;99.90;;;;;;5071558;28;20195;-73
2022/09/08 05:34:46;;;;;;;1999.90;999.90;;;16.50;99.90;;;;;;5074683;28;20203;-70
2022/09/08 05:37:13;;;;;;;1999.90;999.90;;;16.60;99.90;;;;;;5076426;28;20225;-70
2022/09/08 05:39:41;;;;;;;1999.90;999.90;;;16.60;99.90;;;;;;5075598;28;20199;-71
2022/09/08 05:42:08;;;;;;;1999.90;999.90;;;16.60;99.90;;;;;;5075343;28;20205;-70
2022/09/08 05:44:35;;;;;;;1999.90;999.90;;;16.60;99.90;;;;;;5075561;28;20256;-70
2022/09/08 05:47:04;;;;;;;1999.90;999.90;;;16.60;99.90;;;;;;5075811;28;20200;-70
2022/09/08 05:49:31;;;;;;;1999.90;999.90;;;16.50;99.90;;;;;;5075016;28;20202;-69
2022/09/08 05:51:58;;;;;;;1999.90;999.90;;;16.50;99.90;;;;;;5076074;28;20191;-69
2022/09/08 05:54:26;;;;;;;1999.90;999.90;;;16.50;99.90;;;;;;5075909;28;20191;-69
2022/09/08 05:56:53;;;;;;;1999.90;999.90;;;16.50;99.90;;;;;;5075909;28;20691;-68
2022/09/08 05:59:20;;;;;;;1999.90;999.90;;;16.50;99.90;;;;;;5075978;28;20201;-69
2022/09/08 06:01:47;;;;;;;1999.90;999.90;;;16.60;99.90;;;;;;5075532;28;20235;-69
2022/09/08 06:04:16;;;;;;;1999.90;999.90;;;16.60;99.90;;;;;;5075626;28;20203;-72
2022/09/08 06:06:43;;;;;;;1999.90;999.90;;;16.60;99.90;;;;;;5075472;28;20198;-68
2022/09/08 06:09:12;;;;;;;1999.90;999.90;;;16.50;99.90;;;;;;5075420;28;20193;-68
2022/09/08 06:11:40;;;;;;;1999.90;999.90;;;16.50;99.90;;;;;;5075215;28;20196;-67
2022/09/08 06:14:07;;;;;;;1999.90;999.90;;;16.50;99.90;;;;;;5075427;28;20202;-67
2022/09/08 06:16:35;;;;;;;1999.90;999.90;;;16.40;99.90;;;;;;5075296;28;20202;-68
2022/09/08 06:19:02;;;;;;;1999.90;999.90;;;16.30;99.90;;;;;;5074589;28;20211;-68
2022/09/08 06:21:33;;;;;;;1999.90;999.90;;;16.30;99.90;;;;;;5074435;28;20198;-69
2022/09/08 06:24:03;;;;;;;1999.90;999.90;;;16.50;99.90;;;;;;5074368;28;20623;-69
2022/09/08 06:26:56;;;;;;;1999.90;999.90;;;16.50;99.90;;;;;;5075144;28;20664;-70
2022/09/08 06:29:47;;;;;;;1999.90;999.90;;;16.30;99.90;;;;;;5075296;28;20191;-69
2022/09/08 06:32:26;;;;;;;1999.90;999.90;;;16.40;99.90;;;;;;5072866;28;20203;-69
2022/09/08 06:34:57;;;;;;;1999.90;999.90;;;16.50;99.90;;;;;;5075284;28;20179;-69
2022/09/08 06:37:33;;;;;;;1999.90;999.90;;;16.30;99.90;;;;;;5075027;28;20186;-70
2022/09/08 06:40:05;;;;;;;1999.90;999.90;;;16.50;99.90;;;;;;5074595;28;20194;-69
2022/09/08 06:42:42;;;;;;;1999.90;999.90;;;16.50;99.90;;;;;;5074830;28;20187;-71
2022/09/08 06:45:26;;;;;;;1999.90;999.90;;;16.50;99.90;;;;;;5074381;28;20211;-70
2022/09/08 06:48:20;;;;;;;1999.90;999.90;;;16.40;99.90;;;;;;5075519;28;20191;-67
2022/09/08 06:50:58;;;;;;;1999.90;999.90;;;16.40;99.90;;;;;;5075066;28;20187;-67
2022/09/08 06:53:33;;;;;;;1999.90;999.90;;;16.60;99.90;;;;;;5074984;28;20183;-69
2022/09/08 06:56:07;;;;;;;1999.90;999.90;;;16.60;99.90;;;;;;5074587;28;20183;-69
2022/09/08 06:58:36;;;;;;;1999.90;999.90;;;16.60;99.90;;;;;;5074857;28;20186;-69
2022/09/08 07:01:10;;;;;;;1999.90;999.90;;;16.50;99.90;;;;;;5074069;28;20539;-69
2022/09/08 07:04:03;;;;;;;1999.90;999.90;;;16.60;99.90;;;;;;5074143;28;20241;-68
2022/09/08 07:06:36;;;;;;;1999.90;999.90;;;16.50;99.90;;;;;;5071923;28;20192;-69
2022/09/08 07:09:19;;;;;;;1999.90;999.90;;;16.60;99.90;;;;;;5074652;28;20184;-69
2022/09/08 07:11:56;;;;;;;1999.90;999.90;;;16.50;99.90;;;;;;5074283;28;20656;-69
2022/09/08 07:14:44;;;;;;;1999.90;999.90;;;16.80;99.90;;;;;;5074559;28;20183;-70
2022/09/08 07:17:20;;;;;;;1999.90;999.90;;;16.80;99.90;;;;;;5074236;28;20556;-69
2022/09/08 07:19:50;;;;;;;1999.90;999.90;;;16.90;99.90;;;;;;5073099;28;20194;-70
2022/09/08 07:22:27;;;;;;;1999.90;999.90;;;16.80;99.90;;;;;;5074404;28;20218;-69
2022/09/08 07:25:05;;;;;;;1999.90;999.90;;;16.90;99.90;;;;;;5074136;28;20205;-69
2022/09/08 07:27:32;;;;;;;1999.90;999.90;;;16.90;99.90;;;;;;5074067;28;20183;-70
2022/09/08 07:30:04;;;;;;;1999.90;999.90;;;17.00;99.90;;;;;;5073965;28;20562;-69
2022/09/08 07:32:35;;;;;;;1999.90;999.90;;;17.00;99.90;;;;;;5073457;28;20261;-69
2022/09/08 07:35:06;;;;;;;1999.90;999.90;;;17.30;99.90;;;;;;5074435;28;20188;-69
2022/09/08 07:37:42;;;;;;;1999.90;999.90;;;17.30;99.90;;;;;;5073478;28;20262;-68
2022/09/08 07:40:19;;;;;;;1999.90;999.90;;;17.40;99.90;;;;;;5073749;28;20189;-70
2022/09/08 07:42:49;;;;;;;1999.90;999.90;;;17.50;99.90;;;;;;5072967;28;20195;-70
2022/09/08 07:45:17;;;;;;;1999.90;999.90;;;17.40;99.90;;;;;;5073882;28;20220;-70
2022/09/08 07:47:56;;;;;;;1999.90;999.90;;;17.40;99.90;;;;;;5073392;28;20661;-69
2022/09/08 07:50:53;;;;;;;1999.90;999.90;;;17.30;99.90;;;;;;5073824;28;20556;-68
2022/09/08 07:53:24;;;;;;;1999.90;999.90;;;17.30;99.90;;;;;;5073422;28;20201;-69
2022/09/08 07:55:55;;;;;;;1999.90;999.90;;;17.30;99.90;;;;;;5073285;28;20186;-70
2022/09/08 07:58:28;;;;;;;1999.90;999.90;;;17.40;99.90;;;;;;5073370;28;20185;-68
2022/09/08 08:01:02;;;;;;;1999.90;999.90;;;17.50;99.90;;;;;;5073236;28;20194;-68
2022/09/08 08:03:44;;;;;;;1999.90;999.90;;;17.50;99.90;;;;;;5073376;28;20234;-67
2022/09/08 08:06:18;;;;;;;1999.90;999.90;;;17.70;99.90;;;;;;5073349;28;20216;-66
2022/09/08 08:08:59;;;;;;;1999.90;999.90;;;18.70;99.90;;;;;;5073200;28;20187;-68
2022/09/08 08:11:36;;;;;;;1999.90;999.90;;;19.50;99.90;;;;;;5072921;28;20674;-69
2022/09/08 08:14:16;;;;;;;1999.90;999.90;;;19.90;99.90;;;;;;5072302;28;20191;-69
2022/09/08 08:16:57;;;;;;;1999.90;999.90;;;19.90;99.90;;;;;;5072968;28;20641;-69
2022/09/08 08:19:49;;;;;;;1999.90;999.90;;;19.10;99.90;;;;;;5072906;28;20171;-68
2022/09/08 08:22:25;;;;;;;1999.90;999.90;;;18.70;99.90;;;;;;5072895;28;20189;-67
2022/09/08 08:25:01;;;;;;;1999.90;999.90;;;18.70;99.90;;;;;;5073018;28;20195;-67
2022/09/08 08:27:36;;;;;;;1999.90;999.90;;;18.60;99.90;;;;;;5073042;28;20185;-67
2022/09/08 08:30:18;;;;;;;1999.90;999.90;;;18.40;99.90;;;;;;5072791;28;20676;-67
2022/09/08 08:32:52;;;;;;;1999.90;999.90;;;18.20;99.90;;;;;;5073062;28;20190;-67
2022/09/08 08:35:26;;;;;;;1999.90;999.90;;;18.20;99.90;;;;;;5072607;28;20171;-67
2022/09/08 08:37:54;;;;;;;1999.90;999.90;;;18.10;99.90;;;;;;5072714;28;20186;-68
2022/09/08 08:40:45;;;;;;;1999.90;999.90;;;18.60;99.90;;;;;;5072579;28;20223;-69
2022/09/08 08:43:40;;;;;;;1999.90;999.90;;;19.60;99.90;;;;;;5073272;28;20186;-67
2022/09/08 08:46:25;;;;;;;1999.90;999.90;;;20.20;99.90;;;;;;5072593;28;20209;-69
2022/09/08 08:49:10;;;;;;;1999.90;999.90;;;20.90;99.90;;;;;;5072622;28;20190;-69
2022/09/08 08:52:02;;;;;;;1999.90;999.90;;;20.20;99.90;;;;;;5072411;28;20237;-69
2022/09/08 08:54:47;;;;;;;1999.90;999.90;;;20.10;99.90;;;;;;5072106;28;20181;-67
2022/09/08 08:57:35;;;;;;;1999.90;999.90;;;20.50;99.90;;;;;;5071894;28;20185;-69
2022/09/08 09:00:15;;;;;;;1999.90;999.90;;;20.00;99.90;;;;;;5072400;28;20187;-67
2022/09/08 09:03:05;;;;;;;1999.90;999.90;;;19.50;99.90;;;;;;5072069;28;20241;-67
2022/09/08 09:05:51;;;;;;;1999.90;999.90;;;20.10;99.90;;;;;;5072098;28;20210;-68
2022/09/08 09:08:43;;;;;;;1999.90;999.90;;;19.50;99.90;;;;;;5072089;28;20184;-67
2022/09/08 09:11:29;;;;;;;1999.90;999.90;;;19.80;99.90;;;;;;5072331;28;20261;-69
2022/09/08 09:14:28;;;;;;;1999.90;999.90;;;20.30;99.90;;;;;;5072536;28;20189;-68
2022/09/08 09:17:24;;;;;;;1999.90;999.90;;;20.50;99.90;;;;;;5068273;28;20199;-68
2022/09/08 09:20:21;;;;;;;1999.90;999.90;;;21.00;99.90;;;;;;5072373;28;20177;-67
2022/09/08 09:22:54;;;;;;;1999.90;999.90;;;21.30;99.90;;;;;;5072270;28;20219;-66
2022/09/08 09:25:32;;;;;;;1999.90;999.90;;;21.50;99.90;;;;;;5072008;28;20199;-67
2022/09/08 09:28:23;;;;;;;1999.90;999.90;;;21.20;99.90;;;;;;5072076;28;20178;-67
2022/09/08 09:31:06;;;;;;;1999.90;999.90;;;21.00;99.90;;;;;;5071409;28;20182;-68
2022/09/08 09:34:06;;;;;;;1999.90;999.90;;;21.50;99.90;;;;;;5072399;28;20204;-67
2022/09/08 09:36:56;;;;;;;1999.90;999.90;;;21.60;99.90;;;;;;5072260;28;20187;-70
2022/09/08 09:39:50;;;;;;;1999.90;999.90;;;22.00;99.90;;;;;;5072018;28;20198;-67
2022/09/08 09:42:52;;;;;;;1999.90;999.90;;;21.90;99.90;;;;;;5071909;28;20564;-68
2022/09/08 09:45:47;;;;;;;1999.90;999.90;;;21.30;99.90;;;;;;5071694;28;20210;-68
2022/09/08 09:48:33;;;;;;;1999.90;999.90;;;21.80;99.90;;;;;;5072219;28;20516;-68
2022/09/08 09:51:27;;;;;;;1999.90;999.90;;;22.30;99.90;;;;;;5072185;28;20187;-67
2022/09/08 09:54:24;;;;;;;1999.90;999.90;;;21.80;99.90;;;;;;5071754;28;20187;-67
2022/09/08 09:57:24;;;;;;;1999.90;999.90;;;21.00;99.90;;;;;;5071742;28;20567;-67
2022/09/08 10:00:25;;;;;;;1999.90;999.90;;;20.40;99.90;;;;;;5048615;28;20201;-66
2022/09/08 10:03:44;;;;;;;1999.90;999.90;;;20.10;99.90;;;;;;5071647;28;20227;-66
2022/09/08 10:06:26;;;;;;;1999.90;999.90;;;20.30;99.90;;;;;;5029277;28;20210;-67
2022/09/08 10:09:41;;;;;;;1999.90;999.90;;;20.50;99.90;;;;;;5028852;28;20205;-66
2022/09/08 10:12:34;;;;;;;1999.90;999.90;;;21.00;99.90;;;;;;5016026;28;20219;-66
2022/09/08 10:15:38;;;;;;;1999.90;999.90;;;20.80;99.90;;;;;;5029582;28;20190;-66
2022/09/08 10:18:45;;;;;;;1999.90;999.90;;;20.50;99.90;;;;;;5029043;28;20216;-65
2022/09/08 10:21:42;;;;;;;1999.90;999.90;;;20.60;99.90;;;;;;5030221;28;20188;-65
2022/09/08 10:24:42;;;;;;;1999.90;999.90;;;20.70;99.90;;;;;;5031918;28;20213;-65
2022/09/08 10:27:41;;;;;;;1999.90;999.90;;;21.20;99.90;;;;;;5031246;28;20199;-65
2022/09/08 10:30:45;;;;;;;1999.90;999.90;;;21.60;99.90;;;;;;5032773;28;20677;-65
2022/09/08 10:33:54;;;;;;;1999.90;999.90;;;21.80;99.90;;;;;;5015248;28;20214;-65
2022/09/08 10:36:35;;;;;;;1999.90;999.90;;;21.30;99.90;;;;;;4974881;28;20208;-66
2022/09/08 10:39:18;;;;;;;1999.90;999.90;;;21.10;99.90;;;;;;5032717;28;20209;-66
2022/09/08 10:42:27;;;;;;;1999.90;999.90;;;21.40;99.90;;;;;;5032705;28;20201;-66
2022/09/08 10:45:37;;;;;;;1999.90;999.90;;;21.20;99.90;;;;;;5032424;28;20185;-66
2022/09/08 10:48:49;;;;;;;1999.90;999.90;;;20.70;99.90;;;;;;4954332;29;20290;-70
2022/09/08 10:51:43;;;;;;;1999.90;999.90;;;20.70;99.90;;;;;;4930888;29;20305;-68
2022/09/08 10:54:34;;;;;;;1999.90;999.90;;;20.80;99.90;;;;;;4954191;29;20217;-70
2022/09/08 10:57:18;;;;;;;1999.90;999.90;;;20.90;99.90;;;;;;4954335;29;20199;-65
2022/09/08 11:00:08;;;;;;;1999.90;999.90;;;21.40;99.90;;;;;;4953944;29;20207;-66
2022/09/08 11:02:35;;;;;;;1999.90;999.90;;;21.40;99.90;;;;;;4954099;29;20226;-65
2022/09/08 11:05:29;;;;;;;1999.90;999.90;;;22.50;99.90;;;;;;4954119;29;20335;-67
2022/09/08 11:08:25;;;;;;;1999.90;999.90;;;23.70;99.90;;;;;;4953198;29;20203;-68
2022/09/08 11:11:07;;;;;;;1999.90;999.90;;;24.10;99.90;;;;;;4953048;29;20268;-66
2022/09/08 11:13:37;;;;;;;1999.90;999.90;;;23.10;99.90;;;;;;4982579;28;20702;-67
2022/09/08 11:16:51;;;;;;;1999.90;999.90;;;22.20;99.90;;;;;;5011591;28;20197;-66
2022/09/08 11:19:39;;;;;;;1999.90;999.90;;;22.30;99.90;;;;;;4953906;29;20351;-66
2022/09/08 11:22:20;;;;;;;1999.90;999.90;;;22.40;99.90;;;;;;4953878;29;20273;-66
2022/09/08 11:24:59;;;;;;;1999.90;999.90;;;23.30;99.90;;;;;;5006956;28;20257;-66
2022/09/08 11:27:37;;;;;;;1999.90;999.90;;;23.10;99.90;;;;;;5031374;28;20591;-67
2022/09/08 11:30:18;;;;;;;1999.90;999.90;;;23.10;60.20;;;;;;5031764;28;20735;-67
2022/09/08 11:32:56;;;;;;;1999.90;999.90;;;23.30;45.50;;;;;;5031573;28;20293;-66
2022/09/08 11:35:38;;;;;;;1999.90;999.90;;;23.20;38.70;;;;;;5031682;28;20253;-67
2022/09/08 11:38:30;;;;;;;1999.90;999.90;;;22.60;30.40;;;;;;5031754;28;20208;-66
2022/09/08 11:41:27;;;;;;;1999.90;999.90;;;21.60;99.90;;;;;;5031572;28;20196;-67
2022/09/08 11:44:28;;;;;;;1999.90;999.90;;;21.20;99.90;;;;;;5031673;28;20193;-66
2022/09/08 11:47:16;;;;;;;1999.90;999.90;;;21.10;99.90;;;;;;4972638;28;20225;-67
2022/09/08 11:50:10;;;;;;;1999.90;999.90;;;21.20;99.90;;;;;;4972492;28;20226;-66
2022/09/08 11:52:51;;;;;;;1999.90;999.90;;;21.30;99.90;;;;;;4972653;28;20202;-67
2022/09/08 11:55:51;;;;;;;1999.90;999.90;;;22.30;83.80;;;;;;5015223;28;20204;-68
2022/09/08 11:58:30;;;;;;;1999.90;999.90;;;23.30;1.00;;;;;;5031306;28;20185;-67
2022/09/08 12:01:13;;;;;;;1999.90;999.90;;;23.60;2.40;;;;;;5031125;28;20187;-67
2022/09/08 12:04:12;;;;;;;1999.90;999.90;;;23.40;1.00;;;;;;5030971;28;20289;-67
2022/09/08 12:06:55;;;;;;;1999.90;999.90;;;23.90;1.00;;;;;;5031036;28;20204;-66
2022/09/08 12:09:41;;;;;;;1999.90;999.90;;;24.00;1.00;;;;;;5031043;28;20222;-67
2022/09/08 12:12:24;;;;;;;1999.90;999.90;;;24.30;1.00;;;;;;5031059;28;20191;-67
2022/09/08 12:15:03;;;;;;;1999.90;999.90;;;23.70;1.00;;;;;;5031045;28;20185;-67
2022/09/08 12:17:44;;;;;;;1999.90;999.90;;;23.80;1.00;;;;;;5030907;28;20180;-68
2022/09/08 12:20:35;;;;;;;1999.90;999.90;;;23.60;1.00;;;;;;5030907;28;20188;-67
2022/09/08 12:23:28;;;;;;;1999.90;999.90;;;23.50;1.00;;;;;;5057038;28;20207;-69
2022/09/08 12:26:19;;;;;;;1999.90;999.90;;;23.70;1.00;;;;;;5073065;28;20211;-66
2022/09/08 12:29:13;;;;;;;1999.90;999.90;;;23.50;1.00;;;;;;5071121;28;20199;-66
2022/09/08 12:31:59;;;;;;;1999.90;999.90;;;23.80;1.00;;;;;;5072096;28;20263;-66
2022/09/08 12:34:51;;;;;;;1999.90;999.90;;;24.70;1.00;;;;;;5072702;28;20201;-65
2022/09/08 12:37:33;;;;;;;1999.90;999.90;;;24.80;1.00;;;;;;5073038;28;20186;-66
2022/09/08 12:40:30;;;;;;;1999.90;999.90;;;23.60;1.00;;;;;;5072977;28;20189;-66
2022/09/08 12:43:19;;;;;;;1999.90;999.90;;;23.00;1.00;;;;;;5072563;28;20198;-68
2022/09/08 12:46:25;;;;;;;1999.90;999.90;;;23.20;1.00;;;;;;5072800;28;20171;-65
2022/09/08 12:49:17;;;;;;;1999.90;999.90;;;23.30;1.00;;;;;;5072598;28;20525;-67
2022/09/08 12:51:44;;;;;;;1999.90;999.90;;;23.10;1.00;;;;;;5072822;28;20175;-67